sensor_id;sensor_type;location;lat;lon;timestamp;P1;durP1;ratioP1;P2;durP2;ratioP2
81330;SDS011;70793;53.076;8.822;2023-07-24T00:00:23;0.60;;;0.60;;
81330;SDS011;70793;53.076;8.822;2023-07-24T00:02:48;0.88;;;0.70;;
81330;SDS011;70793;53.076;8.822;2023-07-24T00:05:14;0.60;;;0.43;;
81330;SDS011;70793;53.076;8.822;2023-07-24T00:07:39;0.63;;;0.57;;
81330;SDS011;70793;53.076;8.822;2023-07-24T00:10:05;0.82;;;0.70;;
81330;SDS011;70793;53.076;8.822;2023-07-24T00:12:30;0.52;;;0.50;;
81330;SDS011;70793;53.076;8.822;2023-07-24T00:14:56;0.98;;;0.88;;
81330;SDS011;70793;53.076;8.822;2023-07-24T00:17:22;0.50;;;0.50;;
81330;SDS011;70793;53.076;8.822;2023-07-24T00:19:47;0.80;;;0.63;;
81330;SDS011;70793;53.076;8.822;2023-07-24T00:22:13;0.85;;;0.85;;
81330;SDS011;70793;53.076;8.822;2023-07-24T00:24:38;0.57;;;0.57;;
81330;SDS011;70793;53.076;8.822;2023-07-24T00:27:03;0.67;;;0.67;;
81330;SDS011;70793;53.076;8.822;2023-07-24T00:29:29;0.70;;;0.60;;
81330;SDS011;70793;53.076;8.822;2023-07-24T00:31:54;0.77;;;0.77;;
81330;SDS011;70793;53.076;8.822;2023-07-24T00:34:20;0.70;;;0.70;;
81330;SDS011;70793;53.076;8.822;2023-07-24T00:36:45;0.93;;;0.70;;
81330;SDS011;70793;53.076;8.822;2023-07-24T00:39:10;0.60;;;0.50;;
81330;SDS011;70793;53.076;8.822;2023-07-24T00:41:36;0.50;;;0.50;;
81330;SDS011;70793;53.076;8.822;2023-07-24T00:44:02;0.60;;;0.60;;
81330;SDS011;70793;53.076;8.822;2023-07-24T00:46:27;1.33;;;0.55;;
81330;SDS011;70793;53.076;8.822;2023-07-24T00:48:57;0.60;;;0.60;;
81330;SDS011;70793;53.076;8.822;2023-07-24T00:51:22;0.68;;;0.60;;
81330;SDS011;70793;53.076;8.822;2023-07-24T00:53:48;0.90;;;0.90;;
81330;SDS011;70793;53.076;8.822;2023-07-24T00:56:13;0.70;;;0.60;;
81330;SDS011;70793;53.076;8.822;2023-07-24T00:58:39;0.50;;;0.50;;
81330;SDS011;70793;53.076;8.822;2023-07-24T01:01:04;1.30;;;0.90;;
81330;SDS011;70793;53.076;8.822;2023-07-24T01:03:31;0.77;;;0.65;;
81330;SDS011;70793;53.076;8.822;2023-07-24T01:05:58;0.70;;;0.57;;
81330;SDS011;70793;53.076;8.822;2023-07-24T01:08:24;0.75;;;0.60;;
81330;SDS011;70793;53.076;8.822;2023-07-24T01:10:50;0.57;;;0.57;;
81330;SDS011;70793;53.076;8.822;2023-07-24T01:13:15;0.68;;;0.68;;
81330;SDS011;70793;53.076;8.822;2023-07-24T01:15:45;0.82;;;0.70;;
81330;SDS011;70793;53.076;8.822;2023-07-24T01:20:43;1.42;;;0.82;;
81330;SDS011;70793;53.076;8.822;2023-07-24T01:25:56;0.88;;;0.73;;
81330;SDS011;70793;53.076;8.822;2023-07-24T01:28:23;0.60;;;0.60;;
81330;SDS011;70793;53.076;8.822;2023-07-24T01:30:49;0.82;;;0.80;;
81330;SDS011;70793;53.076;8.822;2023-07-24T01:33:14;0.57;;;0.47;;
81330;SDS011;70793;53.076;8.822;2023-07-24T01:35:40;1.47;;;1.00;;
81330;SDS011;70793;53.076;8.822;2023-07-24T01:38:08;0.63;;;0.52;;
81330;SDS011;70793;53.076;8.822;2023-07-24T01:40:34;0.63;;;0.55;;
81330;SDS011;70793;53.076;8.822;2023-07-24T01:43:00;0.88;;;0.88;;
81330;SDS011;70793;53.076;8.822;2023-07-24T01:45:25;0.73;;;0.65;;
81330;SDS011;70793;53.076;8.822;2023-07-24T01:47:50;1.17;;;0.80;;
81330;SDS011;70793;53.076;8.822;2023-07-24T01:50:16;0.90;;;0.70;;
81330;SDS011;70793;53.076;8.822;2023-07-24T01:52:42;1.02;;;0.73;;
81330;SDS011;70793;53.076;8.822;2023-07-24T01:55:09;1.02;;;0.70;;
81330;SDS011;70793;53.076;8.822;2023-07-24T01:57:34;1.20;;;1.05;;
81330;SDS011;70793;53.076;8.822;2023-07-24T02:00:00;0.87;;;0.80;;
81330;SDS011;70793;53.076;8.822;2023-07-24T02:02:25;1.20;;;0.90;;
81330;SDS011;70793;53.076;8.822;2023-07-24T02:04:50;1.00;;;0.77;;
81330;SDS011;70793;53.076;8.822;2023-07-24T02:07:16;0.80;;;0.70;;
81330;SDS011;70793;53.076;8.822;2023-07-24T02:09:41;0.90;;;0.77;;
81330;SDS011;70793;53.076;8.822;2023-07-24T02:12:07;1.52;;;0.93;;
81330;SDS011;70793;53.076;8.822;2023-07-24T02:14:32;1.10;;;0.80;;
81330;SDS011;70793;53.076;8.822;2023-07-24T02:16:58;0.80;;;0.80;;
81330;SDS011;70793;53.076;8.822;2023-07-24T02:19:23;1.63;;;0.60;;
81330;SDS011;70793;53.076;8.822;2023-07-24T02:21:48;0.87;;;0.87;;
81330;SDS011;70793;53.076;8.822;2023-07-24T02:24:14;1.25;;;1.10;;
81330;SDS011;70793;53.076;8.822;2023-07-24T02:26:39;0.80;;;0.70;;
81330;SDS011;70793;53.076;8.822;2023-07-24T02:29:05;0.80;;;0.77;;
81330;SDS011;70793;53.076;8.822;2023-07-24T02:31:30;0.75;;;0.63;;
81330;SDS011;70793;53.076;8.822;2023-07-24T02:33:55;0.70;;;0.50;;
81330;SDS011;70793;53.076;8.822;2023-07-24T02:36:21;0.93;;;0.68;;
81330;SDS011;70793;53.076;8.822;2023-07-24T02:38:46;1.00;;;0.80;;
81330;SDS011;70793;53.076;8.822;2023-07-24T02:41:12;1.20;;;0.90;;
81330;SDS011;70793;53.076;8.822;2023-07-24T02:43:37;1.20;;;0.83;;
81330;SDS011;70793;53.076;8.822;2023-07-24T02:46:02;1.30;;;1.20;;
81330;SDS011;70793;53.076;8.822;2023-07-24T02:48:28;2.08;;;0.90;;
81330;SDS011;70793;53.076;8.822;2023-07-24T02:50:54;1.50;;;1.10;;
81330;SDS011;70793;53.076;8.822;2023-07-24T02:53:19;1.02;;;0.88;;
81330;SDS011;70793;53.076;8.822;2023-07-24T02:55:44;1.33;;;1.02;;
81330;SDS011;70793;53.076;8.822;2023-07-24T02:58:11;0.82;;;0.70;;
81330;SDS011;70793;53.076;8.822;2023-07-24T03:00:37;1.30;;;0.90;;
81330;SDS011;70793;53.076;8.822;2023-07-24T03:03:03;0.65;;;0.63;;
81330;SDS011;70793;53.076;8.822;2023-07-24T03:05:28;0.80;;;0.70;;
81330;SDS011;70793;53.076;8.822;2023-07-24T03:07:54;1.33;;;0.80;;
81330;SDS011;70793;53.076;8.822;2023-07-24T03:10:19;0.90;;;0.90;;
81330;SDS011;70793;53.076;8.822;2023-07-24T03:12:45;0.93;;;0.70;;
81330;SDS011;70793;53.076;8.822;2023-07-24T03:15:10;1.85;;;0.82;;
81330;SDS011;70793;53.076;8.822;2023-07-24T03:17:35;0.90;;;0.77;;
81330;SDS011;70793;53.076;8.822;2023-07-24T03:20:34;1.03;;;0.70;;
81330;SDS011;70793;53.076;8.822;2023-07-24T03:22:52;1.35;;;0.85;;
81330;SDS011;70793;53.076;8.822;2023-07-24T03:25:18;1.10;;;0.90;;
81330;SDS011;70793;53.076;8.822;2023-07-24T03:27:43;1.10;;;0.80;;
81330;SDS011;70793;53.076;8.822;2023-07-24T03:30:09;0.85;;;0.70;;
81330;SDS011;70793;53.076;8.822;2023-07-24T03:32:35;1.33;;;1.00;;
81330;SDS011;70793;53.076;8.822;2023-07-24T03:35:02;0.93;;;0.65;;
81330;SDS011;70793;53.076;8.822;2023-07-24T03:37:27;1.38;;;0.85;;
81330;SDS011;70793;53.076;8.822;2023-07-24T03:39:52;1.30;;;0.83;;
81330;SDS011;70793;53.076;8.822;2023-07-24T03:42:27;1.52;;;0.95;;
81330;SDS011;70793;53.076;8.822;2023-07-24T03:44:54;1.05;;;0.88;;
81330;SDS011;70793;53.076;8.822;2023-07-24T03:47:19;0.90;;;0.80;;
81330;SDS011;70793;53.076;8.822;2023-07-24T03:49:45;0.97;;;0.87;;
81330;SDS011;70793;53.076;8.822;2023-07-24T03:52:10;1.53;;;1.10;;
81330;SDS011;70793;53.076;8.822;2023-07-24T03:54:35;1.00;;;0.80;;
81330;SDS011;70793;53.076;8.822;2023-07-24T03:57:01;0.82;;;0.70;;
81330;SDS011;70793;53.076;8.822;2023-07-24T03:59:27;1.48;;;1.15;;
81330;SDS011;70793;53.076;8.822;2023-07-24T04:01:52;2.00;;;0.87;;
81330;SDS011;70793;53.076;8.822;2023-07-24T04:04:17;1.13;;;0.83;;
81330;SDS011;70793;53.076;8.822;2023-07-24T04:06:43;2.50;;;0.90;;
81330;SDS011;70793;53.076;8.822;2023-07-24T04:09:08;0.75;;;0.68;;
81330;SDS011;70793;53.076;8.822;2023-07-24T04:11:35;0.90;;;0.68;;
81330;SDS011;70793;53.076;8.822;2023-07-24T04:14:03;0.73;;;0.73;;
81330;SDS011;70793;53.076;8.822;2023-07-24T04:16:28;1.30;;;1.20;;
81330;SDS011;70793;53.076;8.822;2023-07-24T04:18:54;0.65;;;0.63;;
81330;SDS011;70793;53.076;8.822;2023-07-24T04:21:19;1.00;;;0.70;;
81330;SDS011;70793;53.076;8.822;2023-07-24T04:23:44;0.67;;;0.67;;
81330;SDS011;70793;53.076;8.822;2023-07-24T04:26:10;0.60;;;0.53;;
81330;SDS011;70793;53.076;8.822;2023-07-24T04:28:35;0.52;;;0.50;;
81330;SDS011;70793;53.076;8.822;2023-07-24T04:31:00;0.43;;;0.40;;
81330;SDS011;70793;53.076;8.822;2023-07-24T04:33:26;0.73;;;0.63;;
81330;SDS011;70793;53.076;8.822;2023-07-24T04:35:52;0.50;;;0.50;;
81330;SDS011;70793;53.076;8.822;2023-07-24T04:38:19;0.98;;;0.90;;
81330;SDS011;70793;53.076;8.822;2023-07-24T04:40:44;0.70;;;0.50;;
81330;SDS011;70793;53.076;8.822;2023-07-24T04:43:10;1.00;;;0.60;;
81330;SDS011;70793;53.076;8.822;2023-07-24T04:45:35;0.90;;;0.50;;
81330;SDS011;70793;53.076;8.822;2023-07-24T04:48:01;1.70;;;0.60;;
81330;SDS011;70793;53.076;8.822;2023-07-24T04:50:26;0.80;;;0.60;;
81330;SDS011;70793;53.076;8.822;2023-07-24T04:52:51;0.67;;;0.63;;
81330;SDS011;70793;53.076;8.822;2023-07-24T04:55:17;0.70;;;0.50;;
81330;SDS011;70793;53.076;8.822;2023-07-24T04:57:42;0.97;;;0.70;;
81330;SDS011;70793;53.076;8.822;2023-07-24T05:00:08;0.50;;;0.50;;
81330;SDS011;70793;53.076;8.822;2023-07-24T05:02:34;0.60;;;0.60;;
81330;SDS011;70793;53.076;8.822;2023-07-24T05:04:59;0.70;;;0.70;;
81330;SDS011;70793;53.076;8.822;2023-07-24T05:07:24;1.15;;;0.70;;
81330;SDS011;70793;53.076;8.822;2023-07-24T05:09:50;1.00;;;0.50;;
81330;SDS011;70793;53.076;8.822;2023-07-24T05:12:15;0.43;;;0.43;;
81330;SDS011;70793;53.076;8.822;2023-07-24T05:14:40;0.43;;;0.40;;
81330;SDS011;70793;53.076;8.822;2023-07-24T05:17:06;0.52;;;0.52;;
81330;SDS011;70793;53.076;8.822;2023-07-24T05:19:31;0.93;;;0.67;;
81330;SDS011;70793;53.076;8.822;2023-07-24T05:21:56;1.63;;;0.80;;
81330;SDS011;70793;53.076;8.822;2023-07-24T05:24:22;0.73;;;0.57;;
81330;SDS011;70793;53.076;8.822;2023-07-24T05:26:47;0.40;;;0.40;;
81330;SDS011;70793;53.076;8.822;2023-07-24T05:29:12;0.50;;;0.30;;
81330;SDS011;70793;53.076;8.822;2023-07-24T05:31:38;0.60;;;0.53;;
81330;SDS011;70793;53.076;8.822;2023-07-24T05:34:03;0.60;;;0.50;;
81330;SDS011;70793;53.076;8.822;2023-07-24T05:36:29;0.63;;;0.52;;
81330;SDS011;70793;53.076;8.822;2023-07-24T05:38:54;0.80;;;0.70;;
81330;SDS011;70793;53.076;8.822;2023-07-24T05:41:20;0.70;;;0.70;;
81330;SDS011;70793;53.076;8.822;2023-07-24T05:43:45;1.00;;;0.47;;
81330;SDS011;70793;53.076;8.822;2023-07-24T05:46:10;0.87;;;0.53;;
81330;SDS011;70793;53.076;8.822;2023-07-24T05:48:36;0.57;;;0.57;;
81330;SDS011;70793;53.076;8.822;2023-07-24T05:51:01;0.50;;;0.47;;
81330;SDS011;70793;53.076;8.822;2023-07-24T05:53:26;0.60;;;0.50;;
81330;SDS011;70793;53.076;8.822;2023-07-24T05:55:58;0.73;;;0.73;;
81330;SDS011;70793;53.076;8.822;2023-07-24T05:58:25;1.23;;;0.50;;
81330;SDS011;70793;53.076;8.822;2023-07-24T06:00:50;0.50;;;0.50;;
81330;SDS011;70793;53.076;8.822;2023-07-24T06:03:16;0.43;;;0.43;;
81330;SDS011;70793;53.076;8.822;2023-07-24T06:05:41;0.47;;;0.40;;
81330;SDS011;70793;53.076;8.822;2023-07-24T06:08:06;0.60;;;0.60;;
81330;SDS011;70793;53.076;8.822;2023-07-24T06:10:33;0.65;;;0.63;;
81330;SDS011;70793;53.076;8.822;2023-07-24T06:12:59;0.88;;;0.82;;
81330;SDS011;70793;53.076;8.822;2023-07-24T06:15:24;0.80;;;0.60;;
81330;SDS011;70793;53.076;8.822;2023-07-24T06:17:50;1.10;;;0.73;;
81330;SDS011;70793;53.076;8.822;2023-07-24T06:20:15;0.75;;;0.75;;
81330;SDS011;70793;53.076;8.822;2023-07-24T06:22:41;0.93;;;0.83;;
81330;SDS011;70793;53.076;8.822;2023-07-24T06:25:06;0.77;;;0.67;;
81330;SDS011;70793;53.076;8.822;2023-07-24T06:27:32;1.00;;;0.90;;
81330;SDS011;70793;53.076;8.822;2023-07-24T06:29:57;1.53;;;0.90;;
81330;SDS011;70793;53.076;8.822;2023-07-24T06:32:22;1.05;;;0.80;;
81330;SDS011;70793;53.076;8.822;2023-07-24T06:34:48;0.90;;;0.80;;
81330;SDS011;70793;53.076;8.822;2023-07-24T06:37:13;1.10;;;0.93;;
81330;SDS011;70793;53.076;8.822;2023-07-24T06:39:38;1.40;;;0.90;;
81330;SDS011;70793;53.076;8.822;2023-07-24T06:42:04;0.90;;;0.87;;
81330;SDS011;70793;53.076;8.822;2023-07-24T06:44:29;0.73;;;0.70;;
81330;SDS011;70793;53.076;8.822;2023-07-24T06:46:58;1.15;;;0.90;;
81330;SDS011;70793;53.076;8.822;2023-07-24T06:49:23;1.42;;;0.93;;
81330;SDS011;70793;53.076;8.822;2023-07-24T06:51:49;1.03;;;0.93;;
81330;SDS011;70793;53.076;8.822;2023-07-24T06:54:14;0.70;;;0.70;;
81330;SDS011;70793;53.076;8.822;2023-07-24T06:56:39;1.00;;;0.90;;
81330;SDS011;70793;53.076;8.822;2023-07-24T06:59:05;0.77;;;0.63;;
81330;SDS011;70793;53.076;8.822;2023-07-24T07:01:30;0.93;;;0.90;;
81330;SDS011;70793;53.076;8.822;2023-07-24T07:03:55;0.73;;;0.73;;
81330;SDS011;70793;53.076;8.822;2023-07-24T07:06:21;0.98;;;0.88;;
81330;SDS011;70793;53.076;8.822;2023-07-24T07:08:46;1.10;;;0.93;;
81330;SDS011;70793;53.076;8.822;2023-07-24T07:11:12;0.80;;;0.70;;
81330;SDS011;70793;53.076;8.822;2023-07-24T07:13:37;1.95;;;1.00;;
81330;SDS011;70793;53.076;8.822;2023-07-24T07:16:02;0.83;;;0.73;;
81330;SDS011;70793;53.076;8.822;2023-07-24T07:18:28;0.70;;;0.70;;
81330;SDS011;70793;53.076;8.822;2023-07-24T07:20:53;1.00;;;0.90;;
81330;SDS011;70793;53.076;8.822;2023-07-24T07:23:19;1.08;;;0.95;;
81330;SDS011;70793;53.076;8.822;2023-07-24T07:25:45;0.80;;;0.73;;
81330;SDS011;70793;53.076;8.822;2023-07-24T07:28:11;1.15;;;0.90;;
81330;SDS011;70793;53.076;8.822;2023-07-24T07:30:37;1.13;;;0.82;;
81330;SDS011;70793;53.076;8.822;2023-07-24T07:33:02;1.00;;;0.80;;
81330;SDS011;70793;53.076;8.822;2023-07-24T07:35:29;0.93;;;0.90;;
81330;SDS011;70793;53.076;8.822;2023-07-24T07:37:54;1.13;;;1.00;;
81330;SDS011;70793;53.076;8.822;2023-07-24T07:40:20;0.82;;;0.82;;
81330;SDS011;70793;53.076;8.822;2023-07-24T07:42:45;1.27;;;0.95;;
81330;SDS011;70793;53.076;8.822;2023-07-24T07:45:10;1.30;;;1.20;;
81330;SDS011;70793;53.076;8.822;2023-07-24T07:47:36;1.08;;;0.85;;
81330;SDS011;70793;53.076;8.822;2023-07-24T07:50:02;1.00;;;0.90;;
81330;SDS011;70793;53.076;8.822;2023-07-24T07:52:27;1.60;;;1.15;;
81330;SDS011;70793;53.076;8.822;2023-07-24T07:54:53;1.67;;;1.38;;
81330;SDS011;70793;53.076;8.822;2023-07-24T07:57:18;1.63;;;0.98;;
81330;SDS011;70793;53.076;8.822;2023-07-24T07:59:43;1.52;;;1.30;;
81330;SDS011;70793;53.076;8.822;2023-07-24T08:02:09;1.10;;;1.00;;
81330;SDS011;70793;53.076;8.822;2023-07-24T08:04:34;1.50;;;1.08;;
81330;SDS011;70793;53.076;8.822;2023-07-24T08:07:00;1.08;;;0.98;;
81330;SDS011;70793;53.076;8.822;2023-07-24T08:09:25;1.20;;;1.00;;
81330;SDS011;70793;53.076;8.822;2023-07-24T08:11:50;1.27;;;1.17;;
81330;SDS011;70793;53.076;8.822;2023-07-24T08:14:16;1.20;;;1.10;;
81330;SDS011;70793;53.076;8.822;2023-07-24T08:16:42;1.30;;;1.05;;
81330;SDS011;70793;53.076;8.822;2023-07-24T08:19:07;1.40;;;1.03;;
81330;SDS011;70793;53.076;8.822;2023-07-24T08:21:33;2.10;;;1.03;;
81330;SDS011;70793;53.076;8.822;2023-07-24T08:23:58;1.10;;;0.87;;
81330;SDS011;70793;53.076;8.822;2023-07-24T08:26:27;1.50;;;1.13;;
81330;SDS011;70793;53.076;8.822;2023-07-24T08:28:52;1.08;;;0.90;;
81330;SDS011;70793;53.076;8.822;2023-07-24T08:33:45;1.15;;;0.95;;
81330;SDS011;70793;53.076;8.822;2023-07-24T08:36:10;1.45;;;0.98;;
81330;SDS011;70793;53.076;8.822;2023-07-24T08:38:39;1.33;;;1.23;;
81330;SDS011;70793;53.076;8.822;2023-07-24T08:43:39;1.15;;;0.82;;
81330;SDS011;70793;53.076;8.822;2023-07-24T08:46:06;1.27;;;1.10;;
81330;SDS011;70793;53.076;8.822;2023-07-24T08:48:33;1.42;;;1.33;;
81330;SDS011;70793;53.076;8.822;2023-07-24T08:51:06;1.30;;;1.20;;
81330;SDS011;70793;53.076;8.822;2023-07-24T08:53:39;1.20;;;1.10;;
81330;SDS011;70793;53.076;8.822;2023-07-24T08:56:07;1.17;;;0.90;;
81330;SDS011;70793;53.076;8.822;2023-07-24T08:58:37;1.25;;;1.15;;
81330;SDS011;70793;53.076;8.822;2023-07-24T09:01:04;1.77;;;1.50;;
81330;SDS011;70793;53.076;8.822;2023-07-24T09:03:30;1.60;;;1.23;;
81330;SDS011;70793;53.076;8.822;2023-07-24T09:05:56;1.48;;;1.20;;
81330;SDS011;70793;53.076;8.822;2023-07-24T09:08:35;1.50;;;1.30;;
81330;SDS011;70793;53.076;8.822;2023-07-24T09:11:01;0.88;;;0.88;;
81330;SDS011;70793;53.076;8.822;2023-07-24T09:13:28;1.70;;;1.60;;
81330;SDS011;70793;53.076;8.822;2023-07-24T09:15:54;1.08;;;0.98;;
81330;SDS011;70793;53.076;8.822;2023-07-24T09:18:20;1.30;;;1.20;;
81330;SDS011;70793;53.076;8.822;2023-07-24T09:20:46;1.50;;;1.25;;
81330;SDS011;70793;53.076;8.822;2023-07-24T09:23:12;1.33;;;1.23;;
81330;SDS011;70793;53.076;8.822;2023-07-24T09:25:39;1.35;;;1.25;;
81330;SDS011;70793;53.076;8.822;2023-07-24T09:28:39;1.48;;;1.02;;
81330;SDS011;70793;53.076;8.822;2023-07-24T09:30:58;1.20;;;1.00;;
81330;SDS011;70793;53.076;8.822;2023-07-24T09:33:39;1.10;;;0.80;;
81330;SDS011;70793;53.076;8.822;2023-07-24T09:36:08;1.90;;;0.98;;
81330;SDS011;70793;53.076;8.822;2023-07-24T09:38:34;1.00;;;0.80;;
81330;SDS011;70793;53.076;8.822;2023-07-24T09:41:01;1.27;;;1.10;;
81330;SDS011;70793;53.076;8.822;2023-07-24T09:43:30;1.20;;;0.93;;
81330;SDS011;70793;53.076;8.822;2023-07-24T09:45:56;0.90;;;0.63;;
81330;SDS011;70793;53.076;8.822;2023-07-24T09:48:26;0.90;;;0.70;;
81330;SDS011;70793;53.076;8.822;2023-07-24T09:50:58;1.33;;;0.90;;
81330;SDS011;70793;53.076;8.822;2023-07-24T09:56:13;0.70;;;0.70;;
81330;SDS011;70793;53.076;8.822;2023-07-24T09:58:42;1.30;;;1.08;;
81330;SDS011;70793;53.076;8.822;2023-07-24T10:01:10;1.00;;;0.90;;
81330;SDS011;70793;53.076;8.822;2023-07-24T10:03:38;1.05;;;0.95;;
81330;SDS011;70793;53.076;8.822;2023-07-24T10:06:05;1.30;;;0.90;;
81330;SDS011;70793;53.076;8.822;2023-07-24T10:08:31;0.93;;;0.82;;
81330;SDS011;70793;53.076;8.822;2023-07-24T10:10:59;1.10;;;0.90;;
81330;SDS011;70793;53.076;8.822;2023-07-24T10:13:25;1.13;;;1.00;;
81330;SDS011;70793;53.076;8.822;2023-07-24T10:15:51;1.10;;;1.00;;
81330;SDS011;70793;53.076;8.822;2023-07-24T10:18:17;1.23;;;1.00;;
81330;SDS011;70793;53.076;8.822;2023-07-24T10:20:43;1.00;;;0.90;;
81330;SDS011;70793;53.076;8.822;2023-07-24T10:23:10;1.20;;;1.10;;
81330;SDS011;70793;53.076;8.822;2023-07-24T10:25:39;1.23;;;1.00;;
81330;SDS011;70793;53.076;8.822;2023-07-24T10:28:09;1.08;;;0.98;;
81330;SDS011;70793;53.076;8.822;2023-07-24T10:30:41;0.80;;;0.80;;
81330;SDS011;70793;53.076;8.822;2023-07-24T10:33:08;0.95;;;0.73;;
81330;SDS011;70793;53.076;8.822;2023-07-24T10:38:03;1.00;;;0.90;;
81330;SDS011;70793;53.076;8.822;2023-07-24T10:40:29;1.30;;;1.20;;
81330;SDS011;70793;53.076;8.822;2023-07-24T10:43:08;1.65;;;1.27;;
81330;SDS011;70793;53.076;8.822;2023-07-24T10:45:45;1.25;;;1.08;;
81330;SDS011;70793;53.076;8.822;2023-07-24T10:48:13;1.00;;;0.90;;
81330;SDS011;70793;53.076;8.822;2023-07-24T10:50:43;1.58;;;0.80;;
81330;SDS011;70793;53.076;8.822;2023-07-24T10:53:10;1.13;;;1.02;;
81330;SDS011;70793;53.076;8.822;2023-07-24T10:55:38;0.85;;;0.82;;
81330;SDS011;70793;53.076;8.822;2023-07-24T10:58:03;2.40;;;1.25;;
81330;SDS011;70793;53.076;8.822;2023-07-24T11:00:30;1.63;;;1.23;;
81330;SDS011;70793;53.076;8.822;2023-07-24T11:02:56;1.52;;;1.10;;
81330;SDS011;70793;53.076;8.822;2023-07-24T11:05:22;1.42;;;1.20;;
81330;SDS011;70793;53.076;8.822;2023-07-24T11:07:48;1.63;;;1.40;;
81330;SDS011;70793;53.076;8.822;2023-07-24T11:10:18;1.35;;;1.25;;
81330;SDS011;70793;53.076;8.822;2023-07-24T11:12:50;1.23;;;1.13;;
81330;SDS011;70793;53.076;8.822;2023-07-24T11:15:22;1.27;;;1.15;;
81330;SDS011;70793;53.076;8.822;2023-07-24T11:17:50;2.15;;;2.00;;
81330;SDS011;70793;53.076;8.822;2023-07-24T11:20:16;1.63;;;1.50;;
81330;SDS011;70793;53.076;8.822;2023-07-24T11:22:42;1.48;;;1.38;;
81330;SDS011;70793;53.076;8.822;2023-07-24T11:25:09;2.20;;;1.90;;
81330;SDS011;70793;53.076;8.822;2023-07-24T11:27:42;1.52;;;1.42;;
81330;SDS011;70793;53.076;8.822;2023-07-24T11:30:12;1.77;;;1.23;;
81330;SDS011;70793;53.076;8.822;2023-07-24T11:32:41;1.75;;;1.55;;
81330;SDS011;70793;53.076;8.822;2023-07-24T11:35:08;1.83;;;1.70;;
81330;SDS011;70793;53.076;8.822;2023-07-24T11:37:34;1.65;;;1.48;;
81330;SDS011;70793;53.076;8.822;2023-07-24T11:40:00;1.73;;;1.50;;
81330;SDS011;70793;53.076;8.822;2023-07-24T11:42:43;2.20;;;2.00;;
81330;SDS011;70793;53.076;8.822;2023-07-24T11:45:09;2.08;;;1.88;;
81330;SDS011;70793;53.076;8.822;2023-07-24T11:50:26;1.77;;;1.67;;
81330;SDS011;70793;53.076;8.822;2023-07-24T11:52:52;1.92;;;1.73;;
81330;SDS011;70793;53.076;8.822;2023-07-24T11:55:29;2.00;;;1.80;;
81330;SDS011;70793;53.076;8.822;2023-07-24T11:57:56;3.30;;;2.72;;
81330;SDS011;70793;53.076;8.822;2023-07-24T12:00:26;2.03;;;1.83;;
81330;SDS011;70793;53.076;8.822;2023-07-24T12:02:53;2.13;;;1.92;;
81330;SDS011;70793;53.076;8.822;2023-07-24T12:05:23;2.10;;;1.73;;
81330;SDS011;70793;53.076;8.822;2023-07-24T12:07:49;1.83;;;1.42;;
81330;SDS011;70793;53.076;8.822;2023-07-24T12:10:24;2.20;;;2.00;;
81330;SDS011;70793;53.076;8.822;2023-07-24T12:12:52;2.00;;;1.80;;
81330;SDS011;70793;53.076;8.822;2023-07-24T12:15:17;1.60;;;1.48;;
81330;SDS011;70793;53.076;8.822;2023-07-24T12:17:46;1.80;;;1.70;;
81330;SDS011;70793;53.076;8.822;2023-07-24T12:20:12;1.75;;;1.60;;
81330;SDS011;70793;53.076;8.822;2023-07-24T12:22:37;1.80;;;1.60;;
81330;SDS011;70793;53.076;8.822;2023-07-24T12:25:04;2.13;;;1.92;;
81330;SDS011;70793;53.076;8.822;2023-07-24T12:27:31;2.00;;;1.80;;
81330;SDS011;70793;53.076;8.822;2023-07-24T12:29:57;2.30;;;2.08;;
81330;SDS011;70793;53.076;8.822;2023-07-24T12:32:22;2.72;;;2.45;;
81330;SDS011;70793;53.076;8.822;2023-07-24T12:34:49;2.53;;;2.33;;
81330;SDS011;70793;53.076;8.822;2023-07-24T12:37:15;2.30;;;2.10;;
81330;SDS011;70793;53.076;8.822;2023-07-24T12:39:41;1.88;;;1.63;;
81330;SDS011;70793;53.076;8.822;2023-07-24T12:42:07;1.70;;;1.60;;
81330;SDS011;70793;53.076;8.822;2023-07-24T12:44:32;3.50;;;2.17;;
81330;SDS011;70793;53.076;8.822;2023-07-24T12:46:58;1.67;;;1.58;;
81330;SDS011;70793;53.076;8.822;2023-07-24T12:49:23;1.65;;;1.42;;
81330;SDS011;70793;53.076;8.822;2023-07-24T12:51:49;1.35;;;1.25;;
81330;SDS011;70793;53.076;8.822;2023-07-24T12:54:14;1.42;;;1.30;;
81330;SDS011;70793;53.076;8.822;2023-07-24T12:56:40;1.50;;;1.40;;
81330;SDS011;70793;53.076;8.822;2023-07-24T12:59:06;3.58;;;1.60;;
81330;SDS011;70793;53.076;8.822;2023-07-24T13:01:32;1.40;;;1.30;;
81330;SDS011;70793;53.076;8.822;2023-07-24T13:03:57;1.77;;;1.67;;
81330;SDS011;70793;53.076;8.822;2023-07-24T13:06:23;1.95;;;1.50;;
81330;SDS011;70793;53.076;8.822;2023-07-24T13:08:49;2.00;;;1.42;;
81330;SDS011;70793;53.076;8.822;2023-07-24T13:11:14;1.30;;;1.20;;
81330;SDS011;70793;53.076;8.822;2023-07-24T13:13:40;1.13;;;0.93;;
81330;SDS011;70793;53.076;8.822;2023-07-24T13:16:05;1.20;;;1.10;;
81330;SDS011;70793;53.076;8.822;2023-07-24T13:18:31;1.40;;;1.30;;
81330;SDS011;70793;53.076;8.822;2023-07-24T13:20:56;2.10;;;1.48;;
81330;SDS011;70793;53.076;8.822;2023-07-24T13:23:22;1.55;;;1.10;;
81330;SDS011;70793;53.076;8.822;2023-07-24T13:25:47;1.40;;;1.30;;
81330;SDS011;70793;53.076;8.822;2023-07-24T13:28:13;1.67;;;1.30;;
81330;SDS011;70793;53.076;8.822;2023-07-24T13:30:39;1.40;;;1.10;;
81330;SDS011;70793;53.076;8.822;2023-07-24T13:33:10;1.02;;;0.93;;
81330;SDS011;70793;53.076;8.822;2023-07-24T13:35:36;1.48;;;1.30;;
81330;SDS011;70793;53.076;8.822;2023-07-24T13:38:02;2.53;;;1.50;;
81330;SDS011;70793;53.076;8.822;2023-07-24T13:40:27;1.70;;;1.23;;
81330;SDS011;70793;53.076;8.822;2023-07-24T13:42:53;1.08;;;0.82;;
81330;SDS011;70793;53.076;8.822;2023-07-24T13:45:18;1.10;;;0.90;;
81330;SDS011;70793;53.076;8.822;2023-07-24T13:47:44;1.67;;;0.93;;
81330;SDS011;70793;53.076;8.822;2023-07-24T13:50:09;1.50;;;1.17;;
81330;SDS011;70793;53.076;8.822;2023-07-24T13:52:35;1.13;;;1.00;;
81330;SDS011;70793;53.076;8.822;2023-07-24T13:55:01;1.25;;;0.90;;
81330;SDS011;70793;53.076;8.822;2023-07-24T13:57:26;1.20;;;1.00;;
81330;SDS011;70793;53.076;8.822;2023-07-24T13:59:54;1.30;;;0.88;;
81330;SDS011;70793;53.076;8.822;2023-07-24T14:02:20;1.27;;;1.00;;
81330;SDS011;70793;53.076;8.822;2023-07-24T14:04:45;0.98;;;0.88;;
81330;SDS011;70793;53.076;8.822;2023-07-24T14:07:17;1.90;;;1.13;;
81330;SDS011;70793;53.076;8.822;2023-07-24T14:09:46;1.60;;;1.10;;
81330;SDS011;70793;53.076;8.822;2023-07-24T14:12:24;0.85;;;0.82;;
81330;SDS011;70793;53.076;8.822;2023-07-24T14:14:53;1.05;;;0.95;;
81330;SDS011;70793;53.076;8.822;2023-07-24T14:17:29;1.08;;;0.80;;
81330;SDS011;70793;53.076;8.822;2023-07-24T14:20:05;1.00;;;0.90;;
81330;SDS011;70793;53.076;8.822;2023-07-24T14:22:43;1.05;;;0.90;;
81330;SDS011;70793;53.076;8.822;2023-07-24T14:25:26;1.10;;;0.95;;
81330;SDS011;70793;53.076;8.822;2023-07-24T14:28:00;1.40;;;0.90;;
81330;SDS011;70793;53.076;8.822;2023-07-24T14:30:28;1.60;;;0.98;;
81330;SDS011;70793;53.076;8.822;2023-07-24T14:33:06;1.35;;;1.15;;
81330;SDS011;70793;53.076;8.822;2023-07-24T14:35:36;1.00;;;0.82;;
81330;SDS011;70793;53.076;8.822;2023-07-24T14:38:06;1.17;;;0.70;;
81330;SDS011;70793;53.076;8.822;2023-07-24T14:40:39;1.00;;;0.90;;
81330;SDS011;70793;53.076;8.822;2023-07-24T14:43:12;1.20;;;1.10;;
81330;SDS011;70793;53.076;8.822;2023-07-24T14:45:37;1.40;;;0.80;;
81330;SDS011;70793;53.076;8.822;2023-07-24T14:48:03;1.23;;;0.70;;
81330;SDS011;70793;53.076;8.822;2023-07-24T14:50:29;1.10;;;1.00;;
81330;SDS011;70793;53.076;8.822;2023-07-24T14:52:55;1.58;;;0.73;;
81330;SDS011;70793;53.076;8.822;2023-07-24T14:55:20;0.80;;;0.70;;
81330;SDS011;70793;53.076;8.822;2023-07-24T14:57:52;0.88;;;0.80;;
81330;SDS011;70793;53.076;8.822;2023-07-24T15:00:17;0.90;;;0.80;;
81330;SDS011;70793;53.076;8.822;2023-07-24T15:02:43;0.82;;;0.75;;